sensor_id;sensor_type;location;lat;lon;timestamp;temperature;humidity
4566;DHT22;2295;51.050;14.608;2022-08-21T00:02:14;16.40;99.90
4566;DHT22;2295;51.050;14.608;2022-08-21T00:04:43;16.40;99.90
4566;DHT22;2295;51.050;14.608;2022-08-21T00:07:24;16.40;99.90
4566;DHT22;2295;51.050;14.608;2022-08-21T00:09:53;16.50;99.90
4566;DHT22;2295;51.050;14.608;2022-08-21T00:12:21;16.40;99.90
4566;DHT22;2295;51.050;14.608;2022-08-21T00:14:51;16.40;99.90
4566;DHT22;2295;51.050;14.608;2022-08-21T00:17:24;16.40;99.90
4566;DHT22;2295;51.050;14.608;2022-08-21T00:19:52;16.50;99.90
4566;DHT22;2295;51.050;14.608;2022-08-21T00:22:20;16.50;99.90
4566;DHT22;2295;51.050;14.608;2022-08-21T00:24:48;16.50;99.90
4566;DHT22;2295;51.050;14.608;2022-08-21T00:27:16;16.50;99.90
4566;DHT22;2295;51.050;14.608;2022-08-21T00:29:44;16.50;99.90
4566;DHT22;2295;51.050;14.608;2022-08-21T00:32:20;16.50;99.90
4566;DHT22;2295;51.050;14.608;2022-08-21T00:34:48;16.50;99.90
4566;DHT22;2295;51.050;14.608;2022-08-21T00:37:16;16.50;99.90
4566;DHT22;2295;51.050;14.608;2022-08-21T00:39:45;16.50;99.90
4566;DHT22;2295;51.050;14.608;2022-08-21T00:42:14;16.50;99.90
4566;DHT22;2295;51.050;14.608;2022-08-21T00:44:43;16.50;99.90
4566;DHT22;2295;51.050;14.608;2022-08-21T00:47:13;16.50;99.90
4566;DHT22;2295;51.050;14.608;2022-08-21T00:49:42;16.50;99.90
4566;DHT22;2295;51.050;14.608;2022-08-21T00:52:13;16.60;99.90
4566;DHT22;2295;51.050;14.608;2022-08-21T00:54:43;16.50;99.90
4566;DHT22;2295;51.050;14.608;2022-08-21T00:57:15;16.50;99.90
4566;DHT22;2295;51.050;14.608;2022-08-21T00:59:47;16.60;99.90
4566;DHT22;2295;51.050;14.608;2022-08-21T01:02:18;16.60;99.90
4566;DHT22;2295;51.050;14.608;2022-08-21T01:04:47;16.60;99.90
4566;DHT22;2295;51.050;14.608;2022-08-21T01:07:16;16.60;99.90
4566;DHT22;2295;51.050;14.608;2022-08-21T01:09:46;16.60;99.90
4566;DHT22;2295;51.050;14.608;2022-08-21T01:12:15;16.60;99.90
4566;DHT22;2295;51.050;14.608;2022-08-21T01:14:45;16.60;99.90
4566;DHT22;2295;51.050;14.608;2022-08-21T01:17:14;16.50;99.90
4566;DHT22;2295;51.050;14.608;2022-08-21T01:19:44;16.50;99.90
4566;DHT22;2295;51.050;14.608;2022-08-21T01:22:14;16.50;99.90
4566;DHT22;2295;51.050;14.608;2022-08-21T01:24:42;16.50;99.90
4566;DHT22;2295;51.050;14.608;2022-08-21T01:27:10;16.50;99.90
4566;DHT22;2295;51.050;14.608;2022-08-21T01:29:43;16.50;99.90
4566;DHT22;2295;51.050;14.608;2022-08-21T01:32:14;16.50;99.90
4566;DHT22;2295;51.050;14.608;2022-08-21T01:34:45;16.50;99.90
4566;DHT22;2295;51.050;14.608;2022-08-21T01:37:16;16.50;99.90
4566;DHT22;2295;51.050;14.608;2022-08-21T01:39:46;16.50;99.90
4566;DHT22;2295;51.050;14.608;2022-08-21T01:42:15;16.50;99.90
4566;DHT22;2295;51.050;14.608;2022-08-21T01:44:43;16.50;99.90
4566;DHT22;2295;51.050;14.608;2022-08-21T01:47:13;16.50;99.90
4566;DHT22;2295;51.050;14.608;2022-08-21T01:49:44;16.50;99.90
4566;DHT22;2295;51.050;14.608;2022-08-21T01:52:13;16.50;99.90
4566;DHT22;2295;51.050;14.608;2022-08-21T01:54:42;16.50;99.90
4566;DHT22;2295;51.050;14.608;2022-08-21T01:57:20;16.50;99.90
4566;DHT22;2295;51.050;14.608;2022-08-21T01:59:52;16.50;99.90
4566;DHT22;2295;51.050;14.608;2022-08-21T02:02:20;16.50;99.90
4566;DHT22;2295;51.050;14.608;2022-08-21T02:04:48;16.50;99.90
4566;DHT22;2295;51.050;14.608;2022-08-21T02:07:16;16.50;99.90
4566;DHT22;2295;51.050;14.608;2022-08-21T02:09:46;16.50;99.90
4566;DHT22;2295;51.050;14.608;2022-08-21T02:12:15;16.50;99.90
4566;DHT22;2295;51.050;14.608;2022-08-21T02:14:43;16.50;99.90
4566;DHT22;2295;51.050;14.608;2022-08-21T02:17:11;16.40;99.90
4566;DHT22;2295;51.050;14.608;2022-08-21T02:19:40;16.40;99.90
4566;DHT22;2295;51.050;14.608;2022-08-21T02:22:09;16.40;99.90
4566;DHT22;2295;51.050;14.608;2022-08-21T02:24:38;16.40;99.90
4566;DHT22;2295;51.050;14.608;2022-08-21T02:27:22;16.40;99.90
4566;DHT22;2295;51.050;14.608;2022-08-21T02:29:53;16.30;99.90
4566;DHT22;2295;51.050;14.608;2022-08-21T02:32:22;16.30;99.90
4566;DHT22;2295;51.050;14.608;2022-08-21T02:34:50;16.30;99.90
4566;DHT22;2295;51.050;14.608;2022-08-21T02:37:19;16.30;99.90
4566;DHT22;2295;51.050;14.608;2022-08-21T02:39:47;16.20;99.90
4566;DHT22;2295;51.050;14.608;2022-08-21T02:42:16;16.20;99.90
4566;DHT22;2295;51.050;14.608;2022-08-21T02:44:46;16.20;99.90
4566;DHT22;2295;51.050;14.608;2022-08-21T02:47:14;16.20;99.90
4566;DHT22;2295;51.050;14.608;2022-08-21T02:49:42;16.20;99.90
4566;DHT22;2295;51.050;14.608;2022-08-21T02:52:11;16.20;99.90
4566;DHT22;2295;51.050;14.608;2022-08-21T02:54:39;16.20;99.90
4566;DHT22;2295;51.050;14.608;2022-08-21T02:57:08;16.20;99.90
4566;DHT22;2295;51.050;14.608;2022-08-21T02:59:36;16.10;99.90
4566;DHT22;2295;51.050;14.608;2022-08-21T03:02:05;16.10;99.90
4566;DHT22;2295;51.050;14.608;2022-08-21T03:04:34;16.10;99.90
4566;DHT22;2295;51.050;14.608;2022-08-21T03:07:02;16.10;99.90
4566;DHT22;2295;51.050;14.608;2022-08-21T03:09:36;16.00;99.90
4566;DHT22;2295;51.050;14.608;2022-08-21T03:12:16;16.00;99.90
4566;DHT22;2295;51.050;14.608;2022-08-21T03:14:44;16.00;99.90
4566;DHT22;2295;51.050;14.608;2022-08-21T03:17:14;15.90;99.90
4566;DHT22;2295;51.050;14.608;2022-08-21T03:19:42;15.90;99.90
4566;DHT22;2295;51.050;14.608;2022-08-21T03:22:10;15.80;99.90
4566;DHT22;2295;51.050;14.608;2022-08-21T03:24:38;15.70;99.90
4566;DHT22;2295;51.050;14.608;2022-08-21T03:27:10;15.70;99.90
4566;DHT22;2295;51.050;14.608;2022-08-21T03:29:40;15.60;99.90
4566;DHT22;2295;51.050;14.608;2022-08-21T03:32:08;15.60;99.90
4566;DHT22;2295;51.050;14.608;2022-08-21T03:34:38;15.50;99.90
4566;DHT22;2295;51.050;14.608;2022-08-21T03:37:07;15.50;99.90
4566;DHT22;2295;51.050;14.608;2022-08-21T03:39:36;15.50;99.90
4566;DHT22;2295;51.050;14.608;2022-08-21T03:42:04;15.50;99.90
4566;DHT22;2295;51.050;14.608;2022-08-21T03:44:33;15.50;99.90
4566;DHT22;2295;51.050;14.608;2022-08-21T03:47:01;15.50;99.90
4566;DHT22;2295;51.050;14.608;2022-08-21T03:49:30;15.40;99.90
4566;DHT22;2295;51.050;14.608;2022-08-21T03:51:59;15.40;99.90
4566;DHT22;2295;51.050;14.608;2022-08-21T03:54:28;15.40;99.90
4566;DHT22;2295;51.050;14.608;2022-08-21T03:56:56;15.40;99.90
4566;DHT22;2295;51.050;14.608;2022-08-21T03:59:24;15.40;99.90
4566;DHT22;2295;51.050;14.608;2022-08-21T04:01:54;15.30;99.90
4566;DHT22;2295;51.050;14.608;2022-08-21T04:04:23;15.40;99.90
4566;DHT22;2295;51.050;14.608;2022-08-21T04:06:51;15.40;99.90
4566;DHT22;2295;51.050;14.608;2022-08-21T04:09:21;15.40;99.90
4566;DHT22;2295;51.050;14.608;2022-08-21T04:11:50;15.50;99.90
4566;DHT22;2295;51.050;14.608;2022-08-21T04:14:18;15.50;99.90
4566;DHT22;2295;51.050;14.608;2022-08-21T04:16:46;15.50;99.90
4566;DHT22;2295;51.050;14.608;2022-08-21T04:19:14;15.50;99.90
4566;DHT22;2295;51.050;14.608;2022-08-21T04:21:43;15.50;99.90
4566;DHT22;2295;51.050;14.608;2022-08-21T04:24:11;15.60;99.90
4566;DHT22;2295;51.050;14.608;2022-08-21T04:26:41;15.60;99.90
4566;DHT22;2295;51.050;14.608;2022-08-21T04:29:09;15.60;99.90
4566;DHT22;2295;51.050;14.608;2022-08-21T04:31:38;15.70;99.90
4566;DHT22;2295;51.050;14.608;2022-08-21T04:34:06;15.70;99.90
4566;DHT22;2295;51.050;14.608;2022-08-21T04:36:34;15.70;99.90
4566;DHT22;2295;51.050;14.608;2022-08-21T04:39:03;15.70;99.90
4566;DHT22;2295;51.050;14.608;2022-08-21T04:41:35;15.80;99.90
4566;DHT22;2295;51.050;14.608;2022-08-21T04:44:05;15.80;99.90
4566;DHT22;2295;51.050;14.608;2022-08-21T04:46:35;15.80;99.90
4566;DHT22;2295;51.050;14.608;2022-08-21T04:49:03;15.80;99.90
4566;DHT22;2295;51.050;14.608;2022-08-21T04:51:35;15.90;99.90
4566;DHT22;2295;51.050;14.608;2022-08-21T04:54:09;15.90;99.90
4566;DHT22;2295;51.050;14.608;2022-08-21T04:56:42;15.90;99.90
4566;DHT22;2295;51.050;14.608;2022-08-21T04:59:16;15.90;99.90
4566;DHT22;2295;51.050;14.608;2022-08-21T05:01:45;15.80;99.90
4566;DHT22;2295;51.050;14.608;2022-08-21T05:04:16;15.80;99.90
4566;DHT22;2295;51.050;14.608;2022-08-21T05:06:46;15.80;99.90
4566;DHT22;2295;51.050;14.608;2022-08-21T05:09:18;15.80;99.90
4566;DHT22;2295;51.050;14.608;2022-08-21T05:11:47;15.80;99.90
4566;DHT22;2295;51.050;14.608;2022-08-21T05:14:17;15.80;99.90
4566;DHT22;2295;51.050;14.608;2022-08-21T05:16:46;15.80;99.90
4566;DHT22;2295;51.050;14.608;2022-08-21T05:19:14;15.80;99.90
4566;DHT22;2295;51.050;14.608;2022-08-21T05:21:44;15.80;99.90
4566;DHT22;2295;51.050;14.608;2022-08-21T05:24:14;15.80;99.90
4566;DHT22;2295;51.050;14.608;2022-08-21T05:26:43;15.80;99.90
4566;DHT22;2295;51.050;14.608;2022-08-21T05:29:13;15.90;99.90
4566;DHT22;2295;51.050;14.608;2022-08-21T05:31:43;15.90;99.90
4566;DHT22;2295;51.050;14.608;2022-08-21T05:34:12;15.90;99.90
4566;DHT22;2295;51.050;14.608;2022-08-21T05:36:42;16.00;99.90
4566;DHT22;2295;51.050;14.608;2022-08-21T05:39:11;16.00;99.90
4566;DHT22;2295;51.050;14.608;2022-08-21T05:41:39;16.10;99.90
4566;DHT22;2295;51.050;14.608;2022-08-21T05:44:07;16.10;99.90
4566;DHT22;2295;51.050;14.608;2022-08-21T05:46:37;16.10;99.90
4566;DHT22;2295;51.050;14.608;2022-08-21T05:49:06;16.10;99.90
4566;DHT22;2295;51.050;14.608;2022-08-21T05:51:35;16.10;99.90
4566;DHT22;2295;51.050;14.608;2022-08-21T05:54:03;16.10;99.90
4566;DHT22;2295;51.050;14.608;2022-08-21T05:56:32;16.10;99.90
4566;DHT22;2295;51.050;14.608;2022-08-21T05:59:00;16.20;99.90
4566;DHT22;2295;51.050;14.608;2022-08-21T06:01:34;16.20;99.90
4566;DHT22;2295;51.050;14.608;2022-08-21T06:04:03;16.30;99.90
4566;DHT22;2295;51.050;14.608;2022-08-21T06:06:33;16.30;99.90
4566;DHT22;2295;51.050;14.608;2022-08-21T06:09:02;16.30;99.90
4566;DHT22;2295;51.050;14.608;2022-08-21T06:11:31;16.40;99.90
4566;DHT22;2295;51.050;14.608;2022-08-21T06:14:00;16.40;99.90
4566;DHT22;2295;51.050;14.608;2022-08-21T06:16:28;16.40;99.90
4566;DHT22;2295;51.050;14.608;2022-08-21T06:18:56;16.40;99.90
4566;DHT22;2295;51.050;14.608;2022-08-21T06:21:29;16.40;99.90
4566;DHT22;2295;51.050;14.608;2022-08-21T06:23:58;16.40;99.90
4566;DHT22;2295;51.050;14.608;2022-08-21T06:26:27;16.30;99.90
4566;DHT22;2295;51.050;14.608;2022-08-21T06:28:56;16.30;99.90
4566;DHT22;2295;51.050;14.608;2022-08-21T06:31:27;16.20;99.90
4566;DHT22;2295;51.050;14.608;2022-08-21T06:33:55;16.10;99.90
4566;DHT22;2295;51.050;14.608;2022-08-21T06:36:24;16.10;99.90
4566;DHT22;2295;51.050;14.608;2022-08-21T06:38:52;16.00;99.90
4566;DHT22;2295;51.050;14.608;2022-08-21T06:41:25;16.00;99.90
4566;DHT22;2295;51.050;14.608;2022-08-21T06:43:54;16.20;99.90
4566;DHT22;2295;51.050;14.608;2022-08-21T06:46:22;16.30;99.90
4566;DHT22;2295;51.050;14.608;2022-08-21T06:48:51;16.40;99.90
4566;DHT22;2295;51.050;14.608;2022-08-21T06:51:19;16.50;99.90
4566;DHT22;2295;51.050;14.608;2022-08-21T06:53:48;16.60;99.90
4566;DHT22;2295;51.050;14.608;2022-08-21T06:56:16;16.60;99.90
4566;DHT22;2295;51.050;14.608;2022-08-21T06:58:46;16.60;99.90
4566;DHT22;2295;51.050;14.608;2022-08-21T07:01:14;16.70;99.90
4566;DHT22;2295;51.050;14.608;2022-08-21T07:03:43;16.70;99.90
4566;DHT22;2295;51.050;14.608;2022-08-21T07:06:11;16.80;99.90
4566;DHT22;2295;51.050;14.608;2022-08-21T07:08:39;16.80;99.90
4566;DHT22;2295;51.050;14.608;2022-08-21T07:11:11;16.90;99.90
4566;DHT22;2295;51.050;14.608;2022-08-21T07:13:40;17.00;99.90
4566;DHT22;2295;51.050;14.608;2022-08-21T07:16:10;17.00;99.90
4566;DHT22;2295;51.050;14.608;2022-08-21T07:18:38;17.00;99.90
4566;DHT22;2295;51.050;14.608;2022-08-21T07:21:08;17.10;99.90
4566;DHT22;2295;51.050;14.608;2022-08-21T07:23:39;17.10;99.90
4566;DHT22;2295;51.050;14.608;2022-08-21T07:26:09;17.00;99.90
4566;DHT22;2295;51.050;14.608;2022-08-21T07:28:37;17.10;99.90
4566;DHT22;2295;51.050;14.608;2022-08-21T07:31:06;17.10;99.90
4566;DHT22;2295;51.050;14.608;2022-08-21T07:33:36;17.20;99.90
4566;DHT22;2295;51.050;14.608;2022-08-21T07:36:04;17.30;99.90
4566;DHT22;2295;51.050;14.608;2022-08-21T07:38:33;17.40;99.90
4566;DHT22;2295;51.050;14.608;2022-08-21T07:41:02;17.60;99.90
4566;DHT22;2295;51.050;14.608;2022-08-21T07:43:36;17.70;99.90
4566;DHT22;2295;51.050;14.608;2022-08-21T07:46:12;17.90;99.90
4566;DHT22;2295;51.050;14.608;2022-08-21T07:48:42;18.00;99.90
4566;DHT22;2295;51.050;14.608;2022-08-21T07:51:13;18.20;99.90
4566;DHT22;2295;51.050;14.608;2022-08-21T07:53:48;18.30;99.90
4566;DHT22;2295;51.050;14.608;2022-08-21T07:56:16;18.60;99.90
4566;DHT22;2295;51.050;14.608;2022-08-21T07:58:45;18.70;99.90
4566;DHT22;2295;51.050;14.608;2022-08-21T08:01:13;18.90;99.90
4566;DHT22;2295;51.050;14.608;2022-08-21T08:03:43;19.10;99.90
4566;DHT22;2295;51.050;14.608;2022-08-21T08:06:12;19.40;99.90
4566;DHT22;2295;51.050;14.608;2022-08-21T08:08:41;19.70;99.90
4566;DHT22;2295;51.050;14.608;2022-08-21T08:11:10;20.10;99.90
4566;DHT22;2295;51.050;14.608;2022-08-21T08:13:40;20.70;99.90
4566;DHT22;2295;51.050;14.608;2022-08-21T08:16:08;20.70;99.90
4566;DHT22;2295;51.050;14.608;2022-08-21T08:18:36;20.70;99.90
4566;DHT22;2295;51.050;14.608;2022-08-21T08:21:06;20.90;99.90
4566;DHT22;2295;51.050;14.608;2022-08-21T08:23:35;21.20;99.90
4566;DHT22;2295;51.050;14.608;2022-08-21T08:26:03;21.20;99.90
4566;DHT22;2295;51.050;14.608;2022-08-21T08:28:32;21.00;99.90
4566;DHT22;2295;51.050;14.608;2022-08-21T08:31:01;20.60;99.90
4566;DHT22;2295;51.050;14.608;2022-08-21T08:33:29;20.30;99.90
4566;DHT22;2295;51.050;14.608;2022-08-21T08:35:58;19.90;99.90
4566;DHT22;2295;51.050;14.608;2022-08-21T08:38:35;19.70;99.90
4566;DHT22;2295;51.050;14.608;2022-08-21T08:41:10;19.40;99.90
4566;DHT22;2295;51.050;14.608;2022-08-21T08:43:41;19.50;99.90
4566;DHT22;2295;51.050;14.608;2022-08-21T08:46:13;19.60;99.90
4566;DHT22;2295;51.050;14.608;2022-08-21T08:48:47;19.70;99.90
4566;DHT22;2295;51.050;14.608;2022-08-21T08:51:22;19.80;99.90
4566;DHT22;2295;51.050;14.608;2022-08-21T08:53:57;19.80;99.90
4566;DHT22;2295;51.050;14.608;2022-08-21T08:56:30;19.80;99.90
4566;DHT22;2295;51.050;14.608;2022-08-21T08:59:02;20.00;99.90
4566;DHT22;2295;51.050;14.608;2022-08-21T09:01:34;20.00;99.90
4566;DHT22;2295;51.050;14.608;2022-08-21T09:04:05;20.50;99.90
4566;DHT22;2295;51.050;14.608;2022-08-21T09:06:53;20.90;99.90
4566;DHT22;2295;51.050;14.608;2022-08-21T09:09:36;21.10;99.90
4566;DHT22;2295;51.050;14.608;2022-08-21T09:12:12;21.20;99.80
4566;DHT22;2295;51.050;14.608;2022-08-21T09:14:50;21.70;99.60
4566;DHT22;2295;51.050;14.608;2022-08-21T09:17:33;22.50;98.30
4566;DHT22;2295;51.050;14.608;2022-08-21T09:20:16;23.60;97.50
4566;DHT22;2295;51.050;14.608;2022-08-21T09:22:55;24.40;93.80
4566;DHT22;2295;51.050;14.608;2022-08-21T09:25:32;24.30;86.20
4566;DHT22;2295;51.050;14.608;2022-08-21T09:28:01;23.90;92.70
4566;DHT22;2295;51.050;14.608;2022-08-21T09:30:32;23.90;94.60
4566;DHT22;2295;51.050;14.608;2022-08-21T09:33:00;23.80;92.70
4566;DHT22;2295;51.050;14.608;2022-08-21T09:35:28;24.00;91.60
4566;DHT22;2295;51.050;14.608;2022-08-21T09:37:58;24.40;90.90
4566;DHT22;2295;51.050;14.608;2022-08-21T09:40:35;24.40;93.30
4566;DHT22;2295;51.050;14.608;2022-08-21T09:43:06;24.70;92.50
4566;DHT22;2295;51.050;14.608;2022-08-21T09:45:35;24.50;87.80
4566;DHT22;2295;51.050;14.608;2022-08-21T09:48:11;24.80;85.80
4566;DHT22;2295;51.050;14.608;2022-08-21T09:50:40;25.20;89.20
4566;DHT22;2295;51.050;14.608;2022-08-21T09:53:17;24.80;85.80
4566;DHT22;2295;51.050;14.608;2022-08-21T09:55:53;24.80;79.40
4566;DHT22;2295;51.050;14.608;2022-08-21T09:58:42;24.80;80.20
4566;DHT22;2295;51.050;14.608;2022-08-21T10:01:15;24.30;90.10
4566;DHT22;2295;51.050;14.608;2022-08-21T10:03:44;24.00;90.30
4566;DHT22;2295;51.050;14.608;2022-08-21T10:06:23;23.80;89.30
4566;DHT22;2295;51.050;14.608;2022-08-21T10:09:04;23.40;89.00
4566;DHT22;2295;51.050;14.608;2022-08-21T10:11:34;23.20;92.80
4566;DHT22;2295;51.050;14.608;2022-08-21T10:14:13;22.90;91.30
4566;DHT22;2295;51.050;14.608;2022-08-21T10:16:50;22.90;94.40
4566;DHT22;2295;51.050;14.608;2022-08-21T10:19:26;22.70;92.30
4566;DHT22;2295;51.050;14.608;2022-08-21T10:22:02;22.60;93.70
4566;DHT22;2295;51.050;14.608;2022-08-21T10:24:36;22.80;93.70
4566;DHT22;2295;51.050;14.608;2022-08-21T10:27:16;23.50;94.40
4566;DHT22;2295;51.050;14.608;2022-08-21T10:29:53;24.30;81.90
4566;DHT22;2295;51.050;14.608;2022-08-21T10:32:48;25.00;82.70
4566;DHT22;2295;51.050;14.608;2022-08-21T10:35:20;25.70;78.30
4566;DHT22;2295;51.050;14.608;2022-08-21T10:38:00;26.20;80.20
4566;DHT22;2295;51.050;14.608;2022-08-21T10:40:36;26.50;64.40
4566;DHT22;2295;51.050;14.608;2022-08-21T10:43:17;26.10;63.60
4566;DHT22;2295;51.050;14.608;2022-08-21T10:45:57;25.00;68.00
4566;DHT22;2295;51.050;14.608;2022-08-21T10:48:29;24.60;70.30
4566;DHT22;2295;51.050;14.608;2022-08-21T10:51:09;24.50;68.00
4566;DHT22;2295;51.050;14.608;2022-08-21T10:53:47;24.60;71.70
4566;DHT22;2295;51.050;14.608;2022-08-21T10:56:18;25.00;75.10
4566;DHT22;2295;51.050;14.608;2022-08-21T10:59:02;25.20;73.10
4566;DHT22;2295;51.050;14.608;2022-08-21T11:01:37;24.80;70.50
4566;DHT22;2295;51.050;14.608;2022-08-21T11:04:13;24.90;69.50
4566;DHT22;2295;51.050;14.608;2022-08-21T11:06:49;24.50;73.10
4566;DHT22;2295;51.050;14.608;2022-08-21T11:09:22;23.90;77.80
4566;DHT22;2295;51.050;14.608;2022-08-21T11:11:57;23.80;81.10
4566;DHT22;2295;51.050;14.608;2022-08-21T11:14:47;23.80;78.20
4566;DHT22;2295;51.050;14.608;2022-08-21T11:17:20;24.20;77.00
4566;DHT22;2295;51.050;14.608;2022-08-21T11:19:53;24.00;77.50
4566;DHT22;2295;51.050;14.608;2022-08-21T11:22:26;24.60;69.20
4566;DHT22;2295;51.050;14.608;2022-08-21T11:24:59;25.50;75.80
4566;DHT22;2295;51.050;14.608;2022-08-21T11:27:33;26.20;71.50
4566;DHT22;2295;51.050;14.608;2022-08-21T11:30:06;26.90;70.50
4566;DHT22;2295;51.050;14.608;2022-08-21T11:32:57;26.90;60.10
4566;DHT22;2295;51.050;14.608;2022-08-21T11:35:34;26.70;61.60
4566;DHT22;2295;51.050;14.608;2022-08-21T11:41:20;25.70;63.80
4566;DHT22;2295;51.050;14.608;2022-08-21T11:43:55;25.20;67.20
4566;DHT22;2295;51.050;14.608;2022-08-21T11:46:37;25.40;67.70
4566;DHT22;2295;51.050;14.608;2022-08-21T11:49:26;25.30;65.30
4566;DHT22;2295;51.050;14.608;2022-08-21T11:52:05;24.80;69.10
4566;DHT22;2295;51.050;14.608;2022-08-21T11:54:38;24.90;71.30
4566;DHT22;2295;51.050;14.608;2022-08-21T11:57:14;25.60;68.70
4566;DHT22;2295;51.050;14.608;2022-08-21T11:59:49;26.40;66.30
4566;DHT22;2295;51.050;14.608;2022-08-21T12:02:24;27.60;64.60
4566;DHT22;2295;51.050;14.608;2022-08-21T12:04:59;28.00;58.20
4566;DHT22;2295;51.050;14.608;2022-08-21T12:07:37;28.00;58.20
4566;DHT22;2295;51.050;14.608;2022-08-21T12:10:10;27.20;59.40
4566;DHT22;2295;51.050;14.608;2022-08-21T12:12:40;26.40;59.30
4566;DHT22;2295;51.050;14.608;2022-08-21T12:15:26;25.80;63.80
4566;DHT22;2295;51.050;14.608;2022-08-21T12:18:02;25.40;64.80
4566;DHT22;2295;51.050;14.608;2022-08-21T12:20:40;25.00;65.20
4566;DHT22;2295;51.050;14.608;2022-08-21T12:23:24;24.60;64.80
4566;DHT22;2295;51.050;14.608;2022-08-21T12:29:15;24.10;68.90
4566;DHT22;2295;51.050;14.608;2022-08-21T12:31:53;24.20;70.70
4566;DHT22;2295;51.050;14.608;2022-08-21T12:34:28;24.70;64.70
4566;DHT22;2295;51.050;14.608;2022-08-21T12:37:00;25.30;61.80
4566;DHT22;2295;51.050;14.608;2022-08-21T12:39:32;25.90;62.00
4566;DHT22;2295;51.050;14.608;2022-08-21T12:42:06;26.40;56.50
4566;DHT22;2295;51.050;14.608;2022-08-21T12:44:43;26.40;57.10
4566;DHT22;2295;51.050;14.608;2022-08-21T12:47:17;26.40;59.20
4566;DHT22;2295;51.050;14.608;2022-08-21T12:49:56;25.60;57.20
4566;DHT22;2295;51.050;14.608;2022-08-21T12:52:30;25.00;59.00
4566;DHT22;2295;51.050;14.608;2022-08-21T12:55:06;24.50;63.00
4566;DHT22;2295;51.050;14.608;2022-08-21T12:57:36;24.60;64.70
4566;DHT22;2295;51.050;14.608;2022-08-21T13:00:07;24.50;65.70
4566;DHT22;2295;51.050;14.608;2022-08-21T13:02:43;24.30;64.80
4566;DHT22;2295;51.050;14.608;2022-08-21T13:05:29;24.50;61.20
4566;DHT22;2295;51.050;14.608;2022-08-21T13:08:02;24.80;64.10
4566;DHT22;2295;51.050;14.608;2022-08-21T13:10:32;25.00;60.80
4566;DHT22;2295;51.050;14.608;2022-08-21T13:13:03;25.10;61.70
4566;DHT22;2295;51.050;14.608;2022-08-21T13:15:40;24.90;62.90
4566;DHT22;2295;51.050;14.608;2022-08-21T13:18:21;24.40;63.00
4566;DHT22;2295;51.050;14.608;2022-08-21T13:20:51;24.10;66.10
4566;DHT22;2295;51.050;14.608;2022-08-21T13:23:30;23.80;68.50
4566;DHT22;2295;51.050;14.608;2022-08-21T13:25:59;23.40;69.40
4566;DHT22;2295;51.050;14.608;2022-08-21T13:28:33;23.10;69.80
4566;DHT22;2295;51.050;14.608;2022-08-21T13:31:06;22.80;71.90
4566;DHT22;2295;51.050;14.608;2022-08-21T13:33:38;22.60;75.20
4566;DHT22;2295;51.050;14.608;2022-08-21T13:36:13;22.40;72.40
4566;DHT22;2295;51.050;14.608;2022-08-21T13:38:42;22.40;74.50
4566;DHT22;2295;51.050;14.608;2022-08-21T13:41:19;22.50;71.50
4566;DHT22;2295;51.050;14.608;2022-08-21T13:43:51;22.60;73.70
4566;DHT22;2295;51.050;14.608;2022-08-21T13:46:26;22.70;74.20
4566;DHT22;2295;51.050;14.608;2022-08-21T13:48:56;22.80;75.30
4566;DHT22;2295;51.050;14.608;2022-08-21T13:51:28;22.80;74.30
4566;DHT22;2295;51.050;14.608;2022-08-21T13:53:56;23.00;70.30
4566;DHT22;2295;51.050;14.608;2022-08-21T13:56:26;23.00;69.40
4566;DHT22;2295;51.050;14.608;2022-08-21T13:58:56;23.00;70.90
4566;DHT22;2295;51.050;14.608;2022-08-21T14:01:27;22.90;73.00
4566;DHT22;2295;51.050;14.608;2022-08-21T14:04:02;22.80;74.00
4566;DHT22;2295;51.050;14.608;2022-08-21T14:06:36;22.70;74.30
4566;DHT22;2295;51.050;14.608;2022-08-21T14:09:09;22.40;73.20
4566;DHT22;2295;51.050;14.608;2022-08-21T14:11:39;22.40;74.80
4566;DHT22;2295;51.050;14.608;2022-08-21T14:14:23;22.30;75.70
4566;DHT22;2295;51.050;14.608;2022-08-21T14:16:55;22.30;74.00
4566;DHT22;2295;51.050;14.608;2022-08-21T14:19:26;22.20;77.10
4566;DHT22;2295;51.050;14.608;2022-08-21T14:21:55;22.10;76.60
4566;DHT22;2295;51.050;14.608;2022-08-21T14:24:28;21.90;72.50
4566;DHT22;2295;51.050;14.608;2022-08-21T14:27:04;21.80;76.90
4566;DHT22;2295;51.050;14.608;2022-08-21T14:29:35;21.90;76.20
4566;DHT22;2295;51.050;14.608;2022-08-21T14:32:13;21.70;73.40
4566;DHT22;2295;51.050;14.608;2022-08-21T14:34:51;21.70;74.10
4566;DHT22;2295;51.050;14.608;2022-08-21T14:37:22;21.70;75.30
4566;DHT22;2295;51.050;14.608;2022-08-21T14:39:50;22.00;79.70
4566;DHT22;2295;51.050;14.608;2022-08-21T14:42:19;22.50;76.90
4566;DHT22;2295;51.050;14.608;2022-08-21T14:44:47;23.10;71.60
4566;DHT22;2295;51.050;14.608;2022-08-21T14:47:15;23.60;71.20
4566;DHT22;2295;51.050;14.608;2022-08-21T14:49:43;24.00;68.70
4566;DHT22;2295;51.050;14.608;2022-08-21T14:52:11;24.40;69.40
4566;DHT22;2295;51.050;14.608;2022-08-21T14:54:41;24.80;67.10
4566;DHT22;2295;51.050;14.608;2022-08-21T14:57:10;24.90;65.30
4566;DHT22;2295;51.050;14.608;2022-08-21T14:59:40;25.00;63.20
4566;DHT22;2295;51.050;14.608;2022-08-21T15:02:09;24.60;63.70
4566;DHT22;2295;51.050;14.608;2022-08-21T15:04:37;24.20;64.60
4566;DHT22;2295;51.050;14.608;2022-08-21T15:07:05;23.70;64.60
4566;DHT22;2295;51.050;14.608;2022-08-21T15:09:34;23.40;69.40
4566;DHT22;2295;51.050;14.608;2022-08-21T15:12:04;23.30;65.90
4566;DHT22;2295;51.050;14.608;2022-08-21T15:14:36;23.00;68.30
4566;DHT22;2295;51.050;14.608;2022-08-21T15:17:07;22.60;72.10
4566;DHT22;2295;51.050;14.608;2022-08-21T15:19:36;22.40;74.50
4566;DHT22;2295;51.050;14.608;2022-08-21T15:22:05;22.20;73.70
4566;DHT22;2295;51.050;14.608;2022-08-21T15:24:45;22.10;72.80
4566;DHT22;2295;51.050;14.608;2022-08-21T15:27:15;22.10;72.90
4566;DHT22;2295;51.050;14.608;2022-08-21T15:29:44;22.40;73.20
4566;DHT22;2295;51.050;14.608;2022-08-21T15:32:20;22.70;71.40
4566;DHT22;2295;51.050;14.608;2022-08-21T15:34:49;22.90;71.20
4566;DHT22;2295;51.050;14.608;2022-08-21T15:37:18;22.70;71.20
4566;DHT22;2295;51.050;14.608;2022-08-21T15:39:46;22.40;72.80
4566;DHT22;2295;51.050;14.608;2022-08-21T15:42:21;22.00;74.60
4566;DHT22;2295;51.050;14.608;2022-08-21T15:44:50;21.80;78.70
4566;DHT22;2295;51.050;14.608;2022-08-21T15:47:21;21.70;79.00
4566;DHT22;2295;51.050;14.608;2022-08-21T15:49:50;21.30;79.30
4566;DHT22;2295;51.050;14.608;2022-08-21T15:52:20;21.10;80.80
4566;DHT22;2295;51.050;14.608;2022-08-21T15:54:49;20.90;81.90
4566;DHT22;2295;51.050;14.608;2022-08-21T15:57:21;20.90;82.60
4566;DHT22;2295;51.050;14.608;2022-08-21T15:59:54;21.00;85.20
4566;DHT22;2295;51.050;14.608;2022-08-21T16:02:26;21.20;84.10
4566;DHT22;2295;51.050;14.608;2022-08-21T16:04:55;21.40;82.70
4566;DHT22;2295;51.050;14.608;2022-08-21T16:07:23;21.80;84.60
4566;DHT22;2295;51.050;14.608;2022-08-21T16:09:52;22.00;80.50
4566;DHT22;2295;51.050;14.608;2022-08-21T16:12:23;22.10;80.30
4566;DHT22;2295;51.050;14.608;2022-08-21T16:14:54;21.90;81.00
4566;DHT22;2295;51.050;14.608;2022-08-21T16:17:27;21.80;81.90
4566;DHT22;2295;51.050;14.608;2022-08-21T16:19:56;21.70;82.50